sensor_id;sensor_type;location;lat;lon;timestamp;P1;P2;P0
73246;PMS5003;61460;41.158;-73.238;2023-03-01T00:01:46;0;0;
73246;PMS5003;61460;41.158;-73.238;2023-03-01T00:04:17;0;0;
73246;PMS5003;61460;41.158;-73.238;2023-03-01T00:06:47;0;0;
73246;PMS5003;61460;41.158;-73.238;2023-03-01T00:09:18;0;0;
73246;PMS5003;61460;41.158;-73.238;2023-03-01T00:11:48;0;0;
73246;PMS5003;61460;41.158;-73.238;2023-03-01T00:14:19;0;0;
73246;PMS5003;61460;41.158;-73.238;2023-03-01T00:16:50;0;0;
73246;PMS5003;61460;41.158;-73.238;2023-03-01T00:19:20;0;0;
73246;PMS5003;61460;41.158;-73.238;2023-03-01T00:21:52;0;0;
73246;PMS5003;61460;41.158;-73.238;2023-03-01T00:24:21;0;0;
73246;PMS5003;61460;41.158;-73.238;2023-03-01T00:26:53;1;1;
73246;PMS5003;61460;41.158;-73.238;2023-03-01T00:29:24;0;0;
73246;PMS5003;61460;41.158;-73.238;2023-03-01T00:31:53;1;1;
73246;PMS5003;61460;41.158;-73.238;2023-03-01T00:34:24;2;1;
73246;PMS5003;61460;41.158;-73.238;2023-03-01T00:36:55;0;0;
73246;PMS5003;61460;41.158;-73.238;2023-03-01T00:39:25;0;0;
73246;PMS5003;61460;41.158;-73.238;2023-03-01T00:41:56;0;0;
73246;PMS5003;61460;41.158;-73.238;2023-03-01T00:44:27;0;0;
73246;PMS5003;61460;41.158;-73.238;2023-03-01T00:46:57;0;0;
73246;PMS5003;61460;41.158;-73.238;2023-03-01T00:49:28;0;0;
73246;PMS5003;61460;41.158;-73.238;2023-03-01T00:51:59;0;0;
73246;PMS5003;61460;41.158;-73.238;2023-03-01T00:54:29;0;0;
73246;PMS5003;61460;41.158;-73.238;2023-03-01T00:57:00;0;0;
73246;PMS5003;61460;41.158;-73.238;2023-03-01T00:59:31;0;0;
73246;PMS5003;61460;41.158;-73.238;2023-03-01T01:02:02;0;0;
73246;PMS5003;61460;41.158;-73.238;2023-03-01T01:04:32;0;0;
73246;PMS5003;61460;41.158;-73.238;2023-03-01T01:07:03;1;1;
73246;PMS5003;61460;41.158;-73.238;2023-03-01T01:09:33;0;0;
73246;PMS5003;61460;41.158;-73.238;2023-03-01T01:12:05;1;1;
73246;PMS5003;61460;41.158;-73.238;2023-03-01T01:14:35;1;1;
73246;PMS5003;61460;41.158;-73.238;2023-03-01T01:17:05;0;0;
73246;PMS5003;61460;41.158;-73.238;2023-03-01T01:19:36;0;0;
73246;PMS5003;61460;41.158;-73.238;2023-03-01T01:22:07;0;0;
73246;PMS5003;61460;41.158;-73.238;2023-03-01T01:24:37;0;0;
73246;PMS5003;61460;41.158;-73.238;2023-03-01T01:27:08;0;0;
73246;PMS5003;61460;41.158;-73.238;2023-03-01T01:29:38;3;1;
73246;PMS5003;61460;41.158;-73.238;2023-03-01T01:32:09;0;0;
73246;PMS5003;61460;41.158;-73.238;2023-03-01T01:34:40;0;0;
73246;PMS5003;61460;41.158;-73.238;2023-03-01T01:37:10;0;0;
73246;PMS5003;61460;41.158;-73.238;2023-03-01T01:39:41;1;1;
73246;PMS5003;61460;41.158;-73.238;2023-03-01T01:42:14;0;0;
73246;PMS5003;61460;41.158;-73.238;2023-03-01T01:44:44;2;1;
73246;PMS5003;61460;41.158;-73.238;2023-03-01T01:47:14;8;4;
73246;PMS5003;61460;41.158;-73.238;2023-03-01T01:49:44;10;7;
73246;PMS5003;61460;41.158;-73.238;2023-03-01T01:52:16;5;4;
73246;PMS5003;61460;41.158;-73.238;2023-03-01T01:54:47;5;2;
73246;PMS5003;61460;41.158;-73.238;2023-03-01T01:57:18;4;4;
73246;PMS5003;61460;41.158;-73.238;2023-03-01T01:59:47;3;2;
73246;PMS5003;61460;41.158;-73.238;2023-03-01T02:02:17;5;3;
73246;PMS5003;61460;41.158;-73.238;2023-03-01T02:04:48;6;4;
73246;PMS5003;61460;41.158;-73.238;2023-03-01T02:07:19;4;2;
73246;PMS5003;61460;41.158;-73.238;2023-03-01T02:09:50;1;1;
73246;PMS5003;61460;41.158;-73.238;2023-03-01T02:12:20;2;2;
73246;PMS5003;61460;41.158;-73.238;2023-03-01T02:14:50;3;3;
73246;PMS5003;61460;41.158;-73.238;2023-03-01T02:17:20;2;2;
73246;PMS5003;61460;41.158;-73.238;2023-03-01T02:19:54;3;3;
73246;PMS5003;61460;41.158;-73.238;2023-03-01T02:22:22;3;3;
73246;PMS5003;61460;41.158;-73.238;2023-03-01T02:24:56;0;0;
73246;PMS5003;61460;41.158;-73.238;2023-03-01T02:27:23;3;2;
73246;PMS5003;61460;41.158;-73.238;2023-03-01T02:29:53;1;1;
73246;PMS5003;61460;41.158;-73.238;2023-03-01T02:32:24;2;1;
73246;PMS5003;61460;41.158;-73.238;2023-03-01T02:34:55;2;1;
73246;PMS5003;61460;41.158;-73.238;2023-03-01T02:37:25;4;4;
73246;PMS5003;61460;41.158;-73.238;2023-03-01T02:39:58;3;3;
73246;PMS5003;61460;41.158;-73.238;2023-03-01T02:42:30;2;2;
73246;PMS5003;61460;41.158;-73.238;2023-03-01T02:44:57;3;3;
73246;PMS5003;61460;41.158;-73.238;2023-03-01T02:47:28;1;1;
73246;PMS5003;61460;41.158;-73.238;2023-03-01T02:49:59;2;2;
73246;PMS5003;61460;41.158;-73.238;2023-03-01T02:52:33;2;1;
73246;PMS5003;61460;41.158;-73.238;2023-03-01T02:55:01;1;1;
73246;PMS5003;61460;41.158;-73.238;2023-03-01T02:57:31;3;2;
73246;PMS5003;61460;41.158;-73.238;2023-03-01T03:00:03;1;1;
73246;PMS5003;61460;41.158;-73.238;2023-03-01T03:02:32;2;1;
73246;PMS5003;61460;41.158;-73.238;2023-03-01T03:05:04;3;3;
73246;PMS5003;61460;41.158;-73.238;2023-03-01T03:07:33;4;4;
73246;PMS5003;61460;41.158;-73.238;2023-03-01T03:10:05;13;13;
73246;PMS5003;61460;41.158;-73.238;2023-03-01T03:12:34;32;23;
73246;PMS5003;61460;41.158;-73.238;2023-03-01T03:15:06;32;28;
73246;PMS5003;61460;41.158;-73.238;2023-03-01T03:17:35;35;27;
73246;PMS5003;61460;41.158;-73.238;2023-03-01T03:20:06;22;22;
73246;PMS5003;61460;41.158;-73.238;2023-03-01T03:22:35;24;22;
73246;PMS5003;61460;41.158;-73.238;2023-03-01T03:25:05;19;19;
73246;PMS5003;61460;41.158;-73.238;2023-03-01T03:27:36;28;21;
73246;PMS5003;61460;41.158;-73.238;2023-03-01T03:30:08;37;35;
73246;PMS5003;61460;41.158;-73.238;2023-03-01T03:32:37;41;38;
73246;PMS5003;61460;41.158;-73.238;2023-03-01T03:35:08;70;56;
73246;PMS5003;61460;41.158;-73.238;2023-03-01T03:37:38;68;64;
73246;PMS5003;61460;41.158;-73.238;2023-03-01T03:40:09;69;56;
73246;PMS5003;61460;41.158;-73.238;2023-03-01T03:42:39;64;55;
73246;PMS5003;61460;41.158;-73.238;2023-03-01T03:45:10;59;52;
73246;PMS5003;61460;41.158;-73.238;2023-03-01T03:47:41;54;52;
73246;PMS5003;61460;41.158;-73.238;2023-03-01T03:50:12;57;46;
73246;PMS5003;61460;41.158;-73.238;2023-03-01T03:52:42;69;57;
73246;PMS5003;61460;41.158;-73.238;2023-03-01T03:55:12;70;60;
73246;PMS5003;61460;41.158;-73.238;2023-03-01T03:57:43;84;71;
73246;PMS5003;61460;41.158;-73.238;2023-03-01T04:00:14;96;86;
73246;PMS5003;61460;41.158;-73.238;2023-03-01T04:02:45;96;78;
73246;PMS5003;61460;41.158;-73.238;2023-03-01T04:05:15;88;73;
73246;PMS5003;61460;41.158;-73.238;2023-03-01T04:07:45;81;68;
73246;PMS5003;61460;41.158;-73.238;2023-03-01T04:10:16;91;79;
73246;PMS5003;61460;41.158;-73.238;2023-03-01T04:12:45;81;69;
73246;PMS5003;61460;41.158;-73.238;2023-03-01T04:15:16;77;68;
73246;PMS5003;61460;41.158;-73.238;2023-03-01T04:17:46;86;70;
73246;PMS5003;61460;41.158;-73.238;2023-03-01T04:20:17;86;71;
73246;PMS5003;61460;41.158;-73.238;2023-03-01T04:22:47;85;69;
73246;PMS5003;61460;41.158;-73.238;2023-03-01T04:25:18;101;87;
73246;PMS5003;61460;41.158;-73.238;2023-03-01T04:27:48;98;86;
73246;PMS5003;61460;41.158;-73.238;2023-03-01T04:30:19;102;92;
73246;PMS5003;61460;41.158;-73.238;2023-03-01T04:32:49;94;79;
73246;PMS5003;61460;41.158;-73.238;2023-03-01T04:35:20;96;83;
73246;PMS5003;61460;41.158;-73.238;2023-03-01T04:37:51;91;80;
73246;PMS5003;61460;41.158;-73.238;2023-03-01T04:40:21;90;80;
73246;PMS5003;61460;41.158;-73.238;2023-03-01T04:42:52;90;75;
73246;PMS5003;61460;41.158;-73.238;2023-03-01T04:45:23;89;78;
73246;PMS5003;61460;41.158;-73.238;2023-03-01T04:47:53;85;73;
73246;PMS5003;61460;41.158;-73.238;2023-03-01T04:50:23;84;74;
73246;PMS5003;61460;41.158;-73.238;2023-03-01T04:52:53;91;83;
73246;PMS5003;61460;41.158;-73.238;2023-03-01T04:55:24;109;93;
73246;PMS5003;61460;41.158;-73.238;2023-03-01T04:57:54;94;84;
73246;PMS5003;61460;41.158;-73.238;2023-03-01T05:00:24;96;88;
73246;PMS5003;61460;41.158;-73.238;2023-03-01T05:02:55;82;75;
73246;PMS5003;61460;41.158;-73.238;2023-03-01T05:05:26;88;86;
73246;PMS5003;61460;41.158;-73.238;2023-03-01T05:07:56;86;73;
73246;PMS5003;61460;41.158;-73.238;2023-03-01T05:10:27;84;76;
73246;PMS5003;61460;41.158;-73.238;2023-03-01T05:12:57;81;71;
73246;PMS5003;61460;41.158;-73.238;2023-03-01T05:15:29;81;75;
73246;PMS5003;61460;41.158;-73.238;2023-03-01T05:17:59;92;82;
73246;PMS5003;61460;41.158;-73.238;2023-03-01T05:20:29;92;80;
73246;PMS5003;61460;41.158;-73.238;2023-03-01T05:22:59;101;85;
73246;PMS5003;61460;41.158;-73.238;2023-03-01T05:25:30;93;81;
73246;PMS5003;61460;41.158;-73.238;2023-03-01T05:28:00;95;85;
73246;PMS5003;61460;41.158;-73.238;2023-03-01T05:30:31;93;81;
73246;PMS5003;61460;41.158;-73.238;2023-03-01T05:33:02;91;74;
73246;PMS5003;61460;41.158;-73.238;2023-03-01T05:35:32;90;80;
73246;PMS5003;61460;41.158;-73.238;2023-03-01T05:38:03;87;75;
73246;PMS5003;61460;41.158;-73.238;2023-03-01T05:40:34;90;81;
73246;PMS5003;61460;41.158;-73.238;2023-03-01T05:43:03;76;66;
73246;PMS5003;61460;41.158;-73.238;2023-03-01T05:45:35;74;69;
73246;PMS5003;61460;41.158;-73.238;2023-03-01T05:48:05;91;77;
73246;PMS5003;61460;41.158;-73.238;2023-03-01T05:50:36;90;76;
73246;PMS5003;61460;41.158;-73.238;2023-03-01T05:53:06;97;81;
73246;PMS5003;61460;41.158;-73.238;2023-03-01T05:55:36;95;82;
73246;PMS5003;61460;41.158;-73.238;2023-03-01T05:58:07;93;77;
73246;PMS5003;61460;41.158;-73.238;2023-03-01T06:00:37;82;73;
73246;PMS5003;61460;41.158;-73.238;2023-03-01T06:03:09;86;72;
73246;PMS5003;61460;41.158;-73.238;2023-03-01T06:05:38;89;80;
73246;PMS5003;61460;41.158;-73.238;2023-03-01T06:08:09;100;87;
73246;PMS5003;61460;41.158;-73.238;2023-03-01T06:10:39;95;84;
73246;PMS5003;61460;41.158;-73.238;2023-03-01T06:13:09;85;79;
73246;PMS5003;61460;41.158;-73.238;2023-03-01T06:15:40;90;77;
73246;PMS5003;61460;41.158;-73.238;2023-03-01T06:18:10;86;74;
73246;PMS5003;61460;41.158;-73.238;2023-03-01T06:20:40;88;79;
73246;PMS5003;61460;41.158;-73.238;2023-03-01T06:23:11;77;73;
73246;PMS5003;61460;41.158;-73.238;2023-03-01T06:25:42;84;73;
73246;PMS5003;61460;41.158;-73.238;2023-03-01T06:28:12;76;68;
73246;PMS5003;61460;41.158;-73.238;2023-03-01T06:30:43;72;70;
73246;PMS5003;61460;41.158;-73.238;2023-03-01T06:33:14;81;72;
73246;PMS5003;61460;41.158;-73.238;2023-03-01T06:35:44;85;71;
73246;PMS5003;61460;41.158;-73.238;2023-03-01T06:38:15;79;67;
73246;PMS5003;61460;41.158;-73.238;2023-03-01T06:40:48;84;80;
73246;PMS5003;61460;41.158;-73.238;2023-03-01T06:43:16;94;83;
73246;PMS5003;61460;41.158;-73.238;2023-03-01T06:45:46;93;79;
73246;PMS5003;61460;41.158;-73.238;2023-03-01T06:48:17;80;74;
73246;PMS5003;61460;41.158;-73.238;2023-03-01T06:50:47;88;76;
73246;PMS5003;61460;41.158;-73.238;2023-03-01T06:53:18;84;74;
73246;PMS5003;61460;41.158;-73.238;2023-03-01T06:58:19;74;72;
73246;PMS5003;61460;41.158;-73.238;2023-03-01T07:00:49;83;80;
73246;PMS5003;61460;41.158;-73.238;2023-03-01T07:03:19;99;88;
73246;PMS5003;61460;41.158;-73.238;2023-03-01T07:05:50;97;87;
73246;PMS5003;61460;41.158;-73.238;2023-03-01T07:08:21;92;80;
73246;PMS5003;61460;41.158;-73.238;2023-03-01T07:10:54;88;76;
73246;PMS5003;61460;41.158;-73.238;2023-03-01T07:13:22;90;76;
73246;PMS5003;61460;41.158;-73.238;2023-03-01T07:15:52;82;69;
73246;PMS5003;61460;41.158;-73.238;2023-03-01T07:18:23;94;81;
73246;PMS5003;61460;41.158;-73.238;2023-03-01T07:20:53;103;94;
73246;PMS5003;61460;41.158;-73.238;2023-03-01T07:23:23;92;82;
73246;PMS5003;61460;41.158;-73.238;2023-03-01T07:25:54;88;73;
73246;PMS5003;61460;41.158;-73.238;2023-03-01T07:28:24;89;78;
73246;PMS5003;61460;41.158;-73.238;2023-03-01T07:30:54;82;78;
73246;PMS5003;61460;41.158;-73.238;2023-03-01T07:33:24;83;74;
73246;PMS5003;61460;41.158;-73.238;2023-03-01T07:35:56;85;71;
73246;PMS5003;61460;41.158;-73.238;2023-03-01T07:38:26;101;87;
73246;PMS5003;61460;41.158;-73.238;2023-03-01T07:40:57;104;89;
73246;PMS5003;61460;41.158;-73.238;2023-03-01T07:43:27;90;84;
73246;PMS5003;61460;41.158;-73.238;2023-03-01T07:45:58;95;81;
73246;PMS5003;61460;41.158;-73.238;2023-03-01T07:48:29;82;76;
73246;PMS5003;61460;41.158;-73.238;2023-03-01T07:50:58;84;72;
73246;PMS5003;61460;41.158;-73.238;2023-03-01T07:53:29;85;72;
73246;PMS5003;61460;41.158;-73.238;2023-03-01T07:56:00;87;78;
73246;PMS5003;61460;41.158;-73.238;2023-03-01T07:58:30;86;77;
73246;PMS5003;61460;41.158;-73.238;2023-03-01T08:01:01;85;75;
73246;PMS5003;61460;41.158;-73.238;2023-03-01T08:03:32;91;80;
73246;PMS5003;61460;41.158;-73.238;2023-03-01T08:06:03;85;78;
73246;PMS5003;61460;41.158;-73.238;2023-03-01T08:08:33;84;74;
73246;PMS5003;61460;41.158;-73.238;2023-03-01T08:11:03;84;76;
73246;PMS5003;61460;41.158;-73.238;2023-03-01T08:13:34;90;80;
73246;PMS5003;61460;41.158;-73.238;2023-03-01T08:16:06;77;70;
73246;PMS5003;61460;41.158;-73.238;2023-03-01T08:18:35;78;71;
73246;PMS5003;61460;41.158;-73.238;2023-03-01T08:21:05;82;76;
73246;PMS5003;61460;41.158;-73.238;2023-03-01T08:23:36;74;71;
73246;PMS5003;61460;41.158;-73.238;2023-03-01T08:26:07;86;74;
73246;PMS5003;61460;41.158;-73.238;2023-03-01T08:28:37;81;71;
73246;PMS5003;61460;41.158;-73.238;2023-03-01T08:33:37;99;93;
73246;PMS5003;61460;41.158;-73.238;2023-03-01T08:36:08;88;78;
73246;PMS5003;61460;41.158;-73.238;2023-03-01T08:38:38;91;83;
73246;PMS5003;61460;41.158;-73.238;2023-03-01T08:41:09;88;76;
73246;PMS5003;61460;41.158;-73.238;2023-03-01T08:43:39;82;72;
73246;PMS5003;61460;41.158;-73.238;2023-03-01T08:46:10;76;66;
73246;PMS5003;61460;41.158;-73.238;2023-03-01T08:48:40;88;76;
73246;PMS5003;61460;41.158;-73.238;2023-03-01T08:51:11;84;72;
73246;PMS5003;61460;41.158;-73.238;2023-03-01T08:53:41;84;74;
73246;PMS5003;61460;41.158;-73.238;2023-03-01T08:56:11;77;68;
73246;PMS5003;61460;41.158;-73.238;2023-03-01T08:58:43;82;72;
73246;PMS5003;61460;41.158;-73.238;2023-03-01T09:01:13;70;65;
73246;PMS5003;61460;41.158;-73.238;2023-03-01T09:03:43;68;63;
73246;PMS5003;61460;41.158;-73.238;2023-03-01T09:06:13;79;73;
73246;PMS5003;61460;41.158;-73.238;2023-03-01T09:08:44;82;79;
73246;PMS5003;61460;41.158;-73.238;2023-03-01T09:11:15;90;78;
73246;PMS5003;61460;41.158;-73.238;2023-03-01T09:13:45;77;69;
73246;PMS5003;61460;41.158;-73.238;2023-03-01T09:16:16;82;74;
73246;PMS5003;61460;41.158;-73.238;2023-03-01T09:18:48;74;67;
73246;PMS5003;61460;41.158;-73.238;2023-03-01T09:21:17;77;71;
73246;PMS5003;61460;41.158;-73.238;2023-03-01T09:23:47;74;66;
73246;PMS5003;61460;41.158;-73.238;2023-03-01T09:26:19;81;70;
73246;PMS5003;61460;41.158;-73.238;2023-03-01T09:28:49;81;71;
73246;PMS5003;61460;41.158;-73.238;2023-03-01T09:31:19;90;75;
73246;PMS5003;61460;41.158;-73.238;2023-03-01T09:33:50;79;69;
73246;PMS5003;61460;41.158;-73.238;2023-03-01T09:36:20;82;76;
73246;PMS5003;61460;41.158;-73.238;2023-03-01T09:38:49;85;75;
73246;PMS5003;61460;41.158;-73.238;2023-03-01T09:41:36;84;75;
73246;PMS5003;61460;41.158;-73.238;2023-03-01T09:43:51;83;70;
73246;PMS5003;61460;41.158;-73.238;2023-03-01T09:46:22;81;71;
73246;PMS5003;61460;41.158;-73.238;2023-03-01T09:48:53;95;81;
73246;PMS5003;61460;41.158;-73.238;2023-03-01T09:51:23;86;80;
73246;PMS5003;61460;41.158;-73.238;2023-03-01T09:53:52;85;79;
73246;PMS5003;61460;41.158;-73.238;2023-03-01T09:56:24;93;81;
73246;PMS5003;61460;41.158;-73.238;2023-03-01T09:58:54;85;80;
73246;PMS5003;61460;41.158;-73.238;2023-03-01T10:01:26;92;81;
73246;PMS5003;61460;41.158;-73.238;2023-03-01T10:03:59;93;80;
73246;PMS5003;61460;41.158;-73.238;2023-03-01T10:06:24;91;80;
73246;PMS5003;61460;41.158;-73.238;2023-03-01T10:08:55;96;87;
73246;PMS5003;61460;41.158;-73.238;2023-03-01T10:11:26;93;79;
73246;PMS5003;61460;41.158;-73.238;2023-03-01T10:13:57;84;78;
73246;PMS5003;61460;41.158;-73.238;2023-03-01T10:16:27;82;72;
73246;PMS5003;61460;41.158;-73.238;2023-03-01T10:18:58;82;76;
73246;PMS5003;61460;41.158;-73.238;2023-03-01T10:21:28;82;72;
73246;PMS5003;61460;41.158;-73.238;2023-03-01T10:23:59;90;81;
73246;PMS5003;61460;41.158;-73.238;2023-03-01T10:26:32;97;86;
73246;PMS5003;61460;41.158;-73.238;2023-03-01T10:29:01;85;78;
73246;PMS5003;61460;41.158;-73.238;2023-03-01T10:31:34;79;72;
73246;PMS5003;61460;41.158;-73.238;2023-03-01T10:33:59;89;74;
73246;PMS5003;61460;41.158;-73.238;2023-03-01T10:36:30;80;69;
73246;PMS5003;61460;41.158;-73.238;2023-03-01T10:39:00;92;80;
73246;PMS5003;61460;41.158;-73.238;2023-03-01T10:41:31;90;80;
73246;PMS5003;61460;41.158;-73.238;2023-03-01T10:44:02;97;86;
73246;PMS5003;61460;41.158;-73.238;2023-03-01T10:46:33;79;68;
73246;PMS5003;61460;41.158;-73.238;2023-03-01T10:49:07;88;80;
73246;PMS5003;61460;41.158;-73.238;2023-03-01T10:51:33;86;82;
73246;PMS5003;61460;41.158;-73.238;2023-03-01T10:54:04;89;81;
73246;PMS5003;61460;41.158;-73.238;2023-03-01T10:59:05;95;80;
73246;PMS5003;61460;41.158;-73.238;2023-03-01T11:01:35;91;77;
73246;PMS5003;61460;41.158;-73.238;2023-03-01T11:04:10;81;70;
73246;PMS5003;61460;41.158;-73.238;2023-03-01T11:06:36;91;76;
73246;PMS5003;61460;41.158;-73.238;2023-03-01T11:11:37;98;82;
73246;PMS5003;61460;41.158;-73.238;2023-03-01T11:14:13;84;73;
73246;PMS5003;61460;41.158;-73.238;2023-03-01T11:16:39;84;75;
73246;PMS5003;61460;41.158;-73.238;2023-03-01T11:21:39;78;70;
73246;PMS5003;61460;41.158;-73.238;2023-03-01T11:24:10;87;74;
73246;PMS5003;61460;41.158;-73.238;2023-03-01T11:26:40;81;76;
73246;PMS5003;61460;41.158;-73.238;2023-03-01T11:29:12;89;75;
73246;PMS5003;61460;41.158;-73.238;2023-03-01T11:31:40;88;74;
73246;PMS5003;61460;41.158;-73.238;2023-03-01T11:34:11;86;78;
73246;PMS5003;61460;41.158;-73.238;2023-03-01T11:36:42;78;65;
73246;PMS5003;61460;41.158;-73.238;2023-03-01T11:39:17;81;71;
73246;PMS5003;61460;41.158;-73.238;2023-03-01T11:41:42;78;70;
73246;PMS5003;61460;41.158;-73.238;2023-03-01T11:44:14;66;65;
73246;PMS5003;61460;41.158;-73.238;2023-03-01T11:49:23;65;64;
73246;PMS5003;61460;41.158;-73.238;2023-03-01T11:51:46;75;65;
73246;PMS5003;61460;41.158;-73.238;2023-03-01T11:54:18;77;69;
73246;PMS5003;61460;41.158;-73.238;2023-03-01T11:56:46;72;65;
73246;PMS5003;61460;41.158;-73.238;2023-03-01T11:59:23;63;59;
73246;PMS5003;61460;41.158;-73.238;2023-03-01T12:01:50;68;56;
73246;PMS5003;61460;41.158;-73.238;2023-03-01T12:04:24;50;50;
73246;PMS5003;61460;41.158;-73.238;2023-03-01T12:06:50;62;54;
73246;PMS5003;61460;41.158;-73.238;2023-03-01T12:09:21;64;54;
73246;PMS5003;61460;41.158;-73.238;2023-03-01T12:11:52;59;53;
73246;PMS5003;61460;41.158;-73.238;2023-03-01T12:14:22;55;54;
73246;PMS5003;61460;41.158;-73.238;2023-03-01T12:19:26;56;45;
73246;PMS5003;61460;41.158;-73.238;2023-03-01T12:21:53;41;40;
73246;PMS5003;61460;41.158;-73.238;2023-03-01T12:24:27;55;47;
73246;PMS5003;61460;41.158;-73.238;2023-03-01T12:26:53;50;40;
73246;PMS5003;61460;41.158;-73.238;2023-03-01T12:29:23;44;38;
73246;PMS5003;61460;41.158;-73.238;2023-03-01T12:31:59;49;39;
73246;PMS5003;61460;41.158;-73.238;2023-03-01T12:34:25;51;43;
73246;PMS5003;61460;41.158;-73.238;2023-03-01T12:36:55;53;42;
73246;PMS5003;61460;41.158;-73.238;2023-03-01T12:39:26;37;34;
73246;PMS5003;61460;41.158;-73.238;2023-03-01T12:41:56;39;31;
73246;PMS5003;61460;41.158;-73.238;2023-03-01T12:44:28;34;32;
73246;PMS5003;61460;41.158;-73.238;2023-03-01T12:47:00;36;35;
73246;PMS5003;61460;41.158;-73.238;2023-03-01T12:49:26;40;34;
73246;PMS5003;61460;41.158;-73.238;2023-03-01T12:51:57;35;29;
73246;PMS5003;61460;41.158;-73.238;2023-03-01T12:54:27;35;35;
73246;PMS5003;61460;41.158;-73.238;2023-03-01T12:56:57;32;28;
73246;PMS5003;61460;41.158;-73.238;2023-03-01T12:59:28;30;30;
73246;PMS5003;61460;41.158;-73.238;2023-03-01T13:02:01;28;26;
73246;PMS5003;61460;41.158;-73.238;2023-03-01T13:04:30;26;24;
73246;PMS5003;61460;41.158;-73.238;2023-03-01T13:07:02;24;23;
73246;PMS5003;61460;41.158;-73.238;2023-03-01T13:09:30;31;25;
73246;PMS5003;61460;41.158;-73.238;2023-03-01T13:11:59;28;22;
73246;PMS5003;61460;41.158;-73.238;2023-03-01T13:16:59;25;22;
73246;PMS5003;61460;41.158;-73.238;2023-03-01T13:19:30;19;19;
73246;PMS5003;61460;41.158;-73.238;2023-03-01T13:22:00;24;21;
73246;PMS5003;61460;41.158;-73.238;2023-03-01T13:24:33;21;20;
73246;PMS5003;61460;41.158;-73.238;2023-03-01T13:29:43;18;17;
73246;PMS5003;61460;41.158;-73.238;2023-03-01T13:32:02;16;16;
73246;PMS5003;61460;41.158;-73.238;2023-03-01T13:34:39;25;16;
73246;PMS5003;61460;41.158;-73.238;2023-03-01T13:37:09;18;18;
73246;PMS5003;61460;41.158;-73.238;2023-03-01T13:39:38;16;15;
73246;PMS5003;61460;41.158;-73.238;2023-03-01T13:42:25;20;17;
73246;PMS5003;61460;41.158;-73.238;2023-03-01T13:44:35;19;14;
73246;PMS5003;61460;41.158;-73.238;2023-03-01T13:47:07;12;12;
73246;PMS5003;61460;41.158;-73.238;2023-03-01T13:49:41;13;13;
73246;PMS5003;61460;41.158;-73.238;2023-03-01T13:52:06;13;13;
73246;PMS5003;61460;41.158;-73.238;2023-03-01T13:54:37;14;13;
73246;PMS5003;61460;41.158;-73.238;2023-03-01T13:57:12;13;12;
73246;PMS5003;61460;41.158;-73.238;2023-03-01T14:02:11;13;12;
73246;PMS5003;61460;41.158;-73.238;2023-03-01T14:04:39;13;11;
73246;PMS5003;61460;41.158;-73.238;2023-03-01T14:07:11;12;12;
73246;PMS5003;61460;41.158;-73.238;2023-03-01T14:09:41;13;12;
73246;PMS5003;61460;41.158;-73.238;2023-03-01T14:12:14;10;10;
73246;PMS5003;61460;41.158;-73.238;2023-03-01T14:14:43;11;11;
73246;PMS5003;61460;41.158;-73.238;2023-03-01T14:19:43;11;9;
73246;PMS5003;61460;41.158;-73.238;2023-03-01T14:22:17;10;9;
73246;PMS5003;61460;41.158;-73.238;2023-03-01T14:24:46;8;8;
73246;PMS5003;61460;41.158;-73.238;2023-03-01T14:27:15;8;8;
73246;PMS5003;61460;41.158;-73.238;2023-03-01T14:32:18;8;8;
73246;PMS5003;61460;41.158;-73.238;2023-03-01T14:34:48;9;9;
73246;PMS5003;61460;41.158;-73.238;2023-03-01T14:37:19;9;8;
73246;PMS5003;61460;41.158;-73.238;2023-03-01T14:39:49;7;7;
73246;PMS5003;61460;41.158;-73.238;2023-03-01T14:42:19;4;4;
73246;PMS5003;61460;41.158;-73.238;2023-03-01T14:44:50;9;8;
73246;PMS5003;61460;41.158;-73.238;2023-03-01T14:47:23;6;6;
73246;PMS5003;61460;41.158;-73.238;2023-03-01T14:49:52;6;6;
73246;PMS5003;61460;41.158;-73.238;2023-03-01T14:52:22;7;7;
73246;PMS5003;61460;41.158;-73.238;2023-03-01T14:54:53;7;6;
73246;PMS5003;61460;41.158;-73.238;2023-03-01T14:57:23;5;5;
73246;PMS5003;61460;41.158;-73.238;2023-03-01T14:59:54;7;6;
73246;PMS5003;61460;41.158;-73.238;2023-03-01T15:02:25;7;7;
73246;PMS5003;61460;41.158;-73.238;2023-03-01T15:04:56;6;6;
73246;PMS5003;61460;41.158;-73.238;2023-03-01T15:07:26;7;5;
73246;PMS5003;61460;41.158;-73.238;2023-03-01T15:09:57;6;6;
73246;PMS5003;61460;41.158;-73.238;2023-03-01T15:14:58;6;6;
73246;PMS5003;61460;41.158;-73.238;2023-03-01T15:17:29;6;6;
73246;PMS5003;61460;41.158;-73.238;2023-03-01T15:19:59;5;5;
73246;PMS5003;61460;41.158;-73.238;2023-03-01T15:22:30;6;6;
73246;PMS5003;61460;41.158;-73.238;2023-03-01T15:25:00;3;3;
73246;PMS5003;61460;41.158;-73.238;2023-03-01T15:27:31;4;4;
73246;PMS5003;61460;41.158;-73.238;2023-03-01T15:30:02;4;4;
73246;PMS5003;61460;41.158;-73.238;2023-03-01T15:32:34;4;4;
73246;PMS5003;61460;41.158;-73.238;2023-03-01T15:37:36;4;4;
73246;PMS5003;61460;41.158;-73.238;2023-03-01T15:42:36;3;3;
73246;PMS5003;61460;41.158;-73.238;2023-03-01T15:45:08;2;2;
73246;PMS5003;61460;41.158;-73.238;2023-03-01T15:47:38;4;3;
73246;PMS5003;61460;41.158;-73.238;2023-03-01T15:50:11;4;3;
73246;PMS5003;61460;41.158;-73.238;2023-03-01T15:52:39;3;3;
73246;PMS5003;61460;41.158;-73.238;2023-03-01T15:57:39;3;3;
73246;PMS5003;61460;41.158;-73.238;2023-03-01T16:00:10;5;4;
73246;PMS5003;61460;41.158;-73.238;2023-03-01T16:02:41;3;3;
73246;PMS5003;61460;41.158;-73.238;2023-03-01T16:05:15;2;2;
73246;PMS5003;61460;41.158;-73.238;2023-03-01T16:07:42;4;3;
73246;PMS5003;61460;41.158;-73.238;2023-03-01T16:10:12;4;4;
73246;PMS5003;61460;41.158;-73.238;2023-03-01T16:12:43;2;2;
73246;PMS5003;61460;41.158;-73.238;2023-03-01T16:15:15;4;3;
73246;PMS5003;61460;41.158;-73.238;2023-03-01T16:17:44;2;2;
73246;PMS5003;61460;41.158;-73.238;2023-03-01T16:20:15;3;3;
73246;PMS5003;61460;41.158;-73.238;2023-03-01T16:22:46;2;2;
73246;PMS5003;61460;41.158;-73.238;2023-03-01T16:25:17;2;2;
73246;PMS5003;61460;41.158;-73.238;2023-03-01T16:27:48;2;2;
73246;PMS5003;61460;41.158;-73.238;2023-03-01T16:30:19;3;3;
73246;PMS5003;61460;41.158;-73.238;2023-03-01T16:32:49;2;2;
73246;PMS5003;61460;41.158;-73.238;2023-03-01T16:35:20;2;2;
73246;PMS5003;61460;41.158;-73.238;2023-03-01T16:37:50;2;2;
73246;PMS5003;61460;41.158;-73.238;2023-03-01T16:40:21;2;2;
73246;PMS5003;61460;41.158;-73.238;2023-03-01T16:42:51;3;3;
73246;PMS5003;61460;41.158;-73.238;2023-03-01T16:45:22;3;3;
73246;PMS5003;61460;41.158;-73.238;2023-03-01T16:47:52;4;4;
73246;PMS5003;61460;41.158;-73.238;2023-03-01T16:50:23;3;2;
73246;PMS5003;61460;41.158;-73.238;2023-03-01T16:52:54;2;2;
73246;PMS5003;61460;41.158;-73.238;2023-03-01T16:55:24;2;2;
73246;PMS5003;61460;41.158;-73.238;2023-03-01T16:57:55;3;3;